Terminal Aerodrome Forecast
Issued by NWS Pittsburgh, PA

Current Version | Previous Version | Text Only | Print | Product List | Glossary Off
Versions: 1 2 3 4 5 6 7 8 9 10 11 12 13 14 15 16 17 18 19 20 21 22 23 24 25 26

258
FTUS41 KPBZ 222328
TAFPIT
TAF
KPIT 222328Z 2300/2406 36004KT P6SM BKN100
     FM230900 35004KT 5SM BR SCT150
     FM231200 35004KT P6SM SCT150
     FM231800 36005KT P6SM BKN040=

USA.gov is the U.S. government's official web portal to all federal, state and local government web resources and services.